sensor_id;sensor_type;location;lat;lon;timestamp;pressure;altitude;pressure_sealevel;temperature;humidity
69842;BME280;57138;51.326;-0.068;2024-03-08T00:00:05;99556.25;;;4.55;99.96
69842;BME280;57138;51.326;-0.068;2024-03-08T00:02:54;99560.22;;;4.51;100.00
69842;BME280;57138;51.326;-0.068;2024-03-08T00:05:20;99557.72;;;4.33;100.00
69842;BME280;57138;51.326;-0.068;2024-03-08T00:07:46;99553.91;;;4.36;100.00
69842;BME280;57138;51.326;-0.068;2024-03-08T00:10:12;99546.63;;;4.29;100.00
69842;BME280;57138;51.326;-0.068;2024-03-08T00:12:43;99541.81;;;4.33;100.00
69842;BME280;57138;51.326;-0.068;2024-03-08T00:15:12;99548.63;;;4.27;100.00
69842;BME280;57138;51.326;-0.068;2024-03-08T00:17:42;99537.69;;;4.22;100.00
69842;BME280;57138;51.326;-0.068;2024-03-08T00:20:08;99530.91;;;4.20;100.00
69842;BME280;57138;51.326;-0.068;2024-03-08T00:22:34;99533.06;;;4.24;100.00
69842;BME280;57138;51.326;-0.068;2024-03-08T00:25:01;99529.09;;;4.20;100.00
69842;BME280;57138;51.326;-0.068;2024-03-08T00:27:27;99518.50;;;4.12;100.00
69842;BME280;57138;51.326;-0.068;2024-03-08T00:29:52;99523.47;;;4.15;100.00
69842;BME280;57138;51.326;-0.068;2024-03-08T00:32:18;99515.34;;;4.00;100.00
69842;BME280;57138;51.326;-0.068;2024-03-08T00:34:43;99517.00;;;4.09;100.00
69842;BME280;57138;51.326;-0.068;2024-03-08T00:37:08;99516.03;;;4.10;100.00
69842;BME280;57138;51.326;-0.068;2024-03-08T00:39:34;99503.63;;;3.94;100.00
69842;BME280;57138;51.326;-0.068;2024-03-08T00:41:59;99504.28;;;3.96;100.00
69842;BME280;57138;51.326;-0.068;2024-03-08T00:44:26;99499.63;;;3.90;100.00
69842;BME280;57138;51.326;-0.068;2024-03-08T00:46:51;99493.38;;;3.91;100.00
69842;BME280;57138;51.326;-0.068;2024-03-08T00:49:17;99504.28;;;3.96;100.00
69842;BME280;57138;51.326;-0.068;2024-03-08T00:51:42;99502.44;;;3.89;100.00
69842;BME280;57138;51.326;-0.068;2024-03-08T00:54:08;99494.00;;;3.85;100.00
69842;BME280;57138;51.326;-0.068;2024-03-08T00:56:34;99495.69;;;3.94;100.00
69842;BME280;57138;51.326;-0.068;2024-03-08T00:59:01;99492.19;;;3.94;100.00
69842;BME280;57138;51.326;-0.068;2024-03-08T01:01:28;99487.75;;;4.03;100.00
69842;BME280;57138;51.326;-0.068;2024-03-08T01:03:53;99482.28;;;3.96;100.00
69842;BME280;57138;51.326;-0.068;2024-03-08T01:06:18;99485.09;;;3.94;100.00
69842;BME280;57138;51.326;-0.068;2024-03-08T01:08:45;99473.19;;;3.90;100.00
69842;BME280;57138;51.326;-0.068;2024-03-08T01:11:12;99473.34;;;3.89;100.00
69842;BME280;57138;51.326;-0.068;2024-03-08T01:13:37;99468.06;;;3.97;100.00
69842;BME280;57138;51.326;-0.068;2024-03-08T01:16:03;99471.19;;;3.92;100.00
69842;BME280;57138;51.326;-0.068;2024-03-08T01:18:29;99462.25;;;3.77;100.00
69842;BME280;57138;51.326;-0.068;2024-03-08T01:20:54;99460.28;;;3.95;100.00
69842;BME280;57138;51.326;-0.068;2024-03-08T01:23:20;99464.28;;;3.91;100.00
69842;BME280;57138;51.326;-0.068;2024-03-08T01:25:45;99454.03;;;3.88;100.00
69842;BME280;57138;51.326;-0.068;2024-03-08T01:28:11;99439.63;;;3.83;100.00
69842;BME280;57138;51.326;-0.068;2024-03-08T01:30:38;99455.00;;;3.87;100.00
69842;BME280;57138;51.326;-0.068;2024-03-08T01:33:04;99450.03;;;3.92;100.00
69842;BME280;57138;51.326;-0.068;2024-03-08T01:35:29;99444.91;;;3.83;100.00
69842;BME280;57138;51.326;-0.068;2024-03-08T01:37:55;99437.63;;;3.85;100.00
69842;BME280;57138;51.326;-0.068;2024-03-08T01:40:20;99443.41;;;3.80;100.00
69842;BME280;57138;51.326;-0.068;2024-03-08T01:42:46;99433.81;;;3.71;100.00
69842;BME280;57138;51.326;-0.068;2024-03-08T01:45:13;99425.91;;;3.87;100.00
69842;BME280;57138;51.326;-0.068;2024-03-08T01:47:38;99436.50;;;3.79;100.00
69842;BME280;57138;51.326;-0.068;2024-03-08T01:50:06;99425.59;;;3.82;100.00
69842;BME280;57138;51.326;-0.068;2024-03-08T01:52:33;99426.91;;;3.78;100.00
69842;BME280;57138;51.326;-0.068;2024-03-08T01:55:01;99425.41;;;3.84;100.00
69842;BME280;57138;51.326;-0.068;2024-03-08T01:57:30;99413.66;;;3.78;100.00
69842;BME280;57138;51.326;-0.068;2024-03-08T01:59:57;99411.34;;;3.58;100.00
69842;BME280;57138;51.326;-0.068;2024-03-08T02:02:22;99406.41;;;3.55;100.00
69842;BME280;57138;51.326;-0.068;2024-03-08T02:04:48;99413.00;;;3.59;100.00
69842;BME280;57138;51.326;-0.068;2024-03-08T02:07:18;99417.28;;;3.77;100.00
69842;BME280;57138;51.326;-0.068;2024-03-08T02:09:44;99404.94;;;3.77;100.00
69842;BME280;57138;51.326;-0.068;2024-03-08T02:12:09;99399.44;;;3.63;100.00
69842;BME280;57138;51.326;-0.068;2024-03-08T02:14:35;99394.16;;;3.54;100.00
69842;BME280;57138;51.326;-0.068;2024-03-08T02:17:02;99395.66;;;3.73;100.00
69842;BME280;57138;51.326;-0.068;2024-03-08T02:19:27;99390.22;;;3.58;100.00
69842;BME280;57138;51.326;-0.068;2024-03-08T02:21:53;99381.94;;;3.62;100.00
69842;BME280;57138;51.326;-0.068;2024-03-08T02:24:19;99377.66;;;3.60;100.00
69842;BME280;57138;51.326;-0.068;2024-03-08T02:26:44;99373.19;;;3.61;100.00
69842;BME280;57138;51.326;-0.068;2024-03-08T02:29:10;99371.38;;;3.62;100.00
69842;BME280;57138;51.326;-0.068;2024-03-08T02:31:35;99365.75;;;3.65;100.00
69842;BME280;57138;51.326;-0.068;2024-03-08T02:34:02;99348.91;;;3.57;100.00
69842;BME280;57138;51.326;-0.068;2024-03-08T02:36:27;99353.50;;;3.47;100.00
69842;BME280;57138;51.326;-0.068;2024-03-08T02:38:52;99349.56;;;3.43;100.00
69842;BME280;57138;51.326;-0.068;2024-03-08T02:41:20;99350.69;;;3.40;100.00
69842;BME280;57138;51.326;-0.068;2024-03-08T02:43:46;99343.25;;;3.36;100.00
69842;BME280;57138;51.326;-0.068;2024-03-08T02:46:11;99346.88;;;3.35;100.00
69842;BME280;57138;51.326;-0.068;2024-03-08T02:48:37;99335.34;;;3.28;100.00
69842;BME280;57138;51.326;-0.068;2024-03-08T02:51:02;99336.97;;;3.29;100.00
69842;BME280;57138;51.326;-0.068;2024-03-08T02:53:28;99323.75;;;3.20;100.00
69842;BME280;57138;51.326;-0.068;2024-03-08T02:55:53;99330.69;;;3.38;100.00
69842;BME280;57138;51.326;-0.068;2024-03-08T02:58:20;99330.69;;;3.30;100.00
69842;BME280;57138;51.326;-0.068;2024-03-08T03:00:45;99330.38;;;3.24;100.00
69842;BME280;57138;51.326;-0.068;2024-03-08T03:03:11;99329.38;;;3.26;100.00
69842;BME280;57138;51.326;-0.068;2024-03-08T03:05:36;99318.16;;;3.23;100.00
69842;BME280;57138;51.326;-0.068;2024-03-08T03:08:01;99316.16;;;3.26;100.00
69842;BME280;57138;51.326;-0.068;2024-03-08T03:10:29;99311.53;;;3.19;100.00
69842;BME280;57138;51.326;-0.068;2024-03-08T03:12:54;99312.53;;;3.10;100.00
69842;BME280;57138;51.326;-0.068;2024-03-08T03:15:20;99306.56;;;3.16;100.00
69842;BME280;57138;51.326;-0.068;2024-03-08T03:17:50;99302.63;;;3.12;100.00
69842;BME280;57138;51.326;-0.068;2024-03-08T03:20:19;99301.97;;;3.18;100.00
69842;BME280;57138;51.326;-0.068;2024-03-08T03:22:51;99304.28;;;3.13;100.00
69842;BME280;57138;51.326;-0.068;2024-03-08T03:25:18;99298.31;;;3.11;100.00
69842;BME280;57138;51.326;-0.068;2024-03-08T03:27:49;99295.50;;;3.13;100.00
69842;BME280;57138;51.326;-0.068;2024-03-08T03:30:15;99290.72;;;3.16;100.00
69842;BME280;57138;51.326;-0.068;2024-03-08T03:32:47;99291.72;;;3.07;100.00
69842;BME280;57138;51.326;-0.068;2024-03-08T03:35:13;99298.63;;;3.08;100.00
69842;BME280;57138;51.326;-0.068;2024-03-08T03:37:40;99274.88;;;3.00;100.00
69842;BME280;57138;51.326;-0.068;2024-03-08T03:40:08;99274.19;;;2.90;100.00
69842;BME280;57138;51.326;-0.068;2024-03-08T03:42:34;99277.31;;;2.85;100.00
69842;BME280;57138;51.326;-0.068;2024-03-08T03:44:59;99270.72;;;2.81;100.00
69842;BME280;57138;51.326;-0.068;2024-03-08T03:47:25;99258.16;;;2.83;100.00
69842;BME280;57138;51.326;-0.068;2024-03-08T03:49:52;99264.91;;;2.77;100.00
69842;BME280;57138;51.326;-0.068;2024-03-08T03:52:18;99260.28;;;2.71;100.00
69842;BME280;57138;51.326;-0.068;2024-03-08T03:54:44;99264.91;;;2.77;100.00
69842;BME280;57138;51.326;-0.068;2024-03-08T03:57:09;99263.44;;;2.83;100.00
69842;BME280;57138;51.326;-0.068;2024-03-08T03:59:34;99268.88;;;2.81;100.00
69842;BME280;57138;51.326;-0.068;2024-03-08T04:02:00;99261.34;;;2.95;100.00
69842;BME280;57138;51.326;-0.068;2024-03-08T04:04:25;99259.34;;;2.97;100.00
69842;BME280;57138;51.326;-0.068;2024-03-08T04:06:51;99259.81;;;2.84;100.00
69842;BME280;57138;51.326;-0.068;2024-03-08T04:09:17;99254.03;;;2.80;100.00
69842;BME280;57138;51.326;-0.068;2024-03-08T04:11:44;99252.06;;;2.82;100.00
69842;BME280;57138;51.326;-0.068;2024-03-08T04:14:10;99254.66;;;2.74;100.00
69842;BME280;57138;51.326;-0.068;2024-03-08T04:16:35;99241.78;;;2.71;100.00
69842;BME280;57138;51.326;-0.068;2024-03-08T04:19:01;99244.44;;;2.71;100.00
69842;BME280;57138;51.326;-0.068;2024-03-08T04:21:30;99241.97;;;2.69;100.00
69842;BME280;57138;51.326;-0.068;2024-03-08T04:23:55;99229.78;;;2.77;100.00
69842;BME280;57138;51.326;-0.068;2024-03-08T04:26:21;99237.03;;;2.83;100.00
69842;BME280;57138;51.326;-0.068;2024-03-08T04:28:46;99227.94;;;2.77;100.00
69842;BME280;57138;51.326;-0.068;2024-03-08T04:31:12;99226.13;;;2.69;100.00
69842;BME280;57138;51.326;-0.068;2024-03-08T04:33:37;99223.81;;;2.66;100.00
69842;BME280;57138;51.326;-0.068;2024-03-08T04:36:04;99228.28;;;2.74;100.00
69842;BME280;57138;51.326;-0.068;2024-03-08T04:38:30;99221.19;;;2.75;100.00
69842;BME280;57138;51.326;-0.068;2024-03-08T04:40:56;99215.06;;;2.66;100.00
69842;BME280;57138;51.326;-0.068;2024-03-08T04:43:22;99218.06;;;2.79;100.00
69842;BME280;57138;51.326;-0.068;2024-03-08T04:45:50;99212.75;;;2.71;100.00
69842;BME280;57138;51.326;-0.068;2024-03-08T04:48:16;99221.19;;;2.75;100.00
69842;BME280;57138;51.326;-0.068;2024-03-08T04:50:41;99213.59;;;2.72;100.00
69842;BME280;57138;51.326;-0.068;2024-03-08T04:53:07;99211.47;;;2.75;100.00
69842;BME280;57138;51.326;-0.068;2024-03-08T04:55:34;99213.59;;;2.72;100.00
69842;BME280;57138;51.326;-0.068;2024-03-08T04:57:59;99207.47;;;2.71;100.00
69842;BME280;57138;51.326;-0.068;2024-03-08T05:00:24;99210.13;;;2.63;100.00
69842;BME280;57138;51.326;-0.068;2024-03-08T05:02:50;99192.94;;;2.50;100.00
69842;BME280;57138;51.326;-0.068;2024-03-08T05:05:18;99198.56;;;2.56;100.00
69842;BME280;57138;51.326;-0.068;2024-03-08T05:07:44;99192.66;;;2.62;100.00
69842;BME280;57138;51.326;-0.068;2024-03-08T05:10:11;99191.31;;;2.66;100.00
69842;BME280;57138;51.326;-0.068;2024-03-08T05:12:36;99190.19;;;2.77;100.00
69842;BME280;57138;51.326;-0.068;2024-03-08T05:15:04;99187.88;;;2.74;100.00
69842;BME280;57138;51.326;-0.068;2024-03-08T05:17:30;99179.78;;;2.67;100.00
69842;BME280;57138;51.326;-0.068;2024-03-08T05:19:55;99178.44;;;2.63;100.00
69842;BME280;57138;51.326;-0.068;2024-03-08T05:22:21;99181.75;;;2.65;100.00
69842;BME280;57138;51.326;-0.068;2024-03-08T05:24:47;99164.94;;;2.58;100.00
69842;BME280;57138;51.326;-0.068;2024-03-08T05:27:13;99160.13;;;2.69;100.00
69842;BME280;57138;51.326;-0.068;2024-03-08T05:29:38;99160.63;;;2.65;100.00
69842;BME280;57138;51.326;-0.068;2024-03-08T05:32:04;99154.38;;;2.66;100.00
69842;BME280;57138;51.326;-0.068;2024-03-08T05:34:29;99152.41;;;2.76;100.00
69842;BME280;57138;51.326;-0.068;2024-03-08T05:36:55;99144.47;;;2.84;100.00
69842;BME280;57138;51.326;-0.068;2024-03-08T05:39:20;99147.63;;;2.80;100.00
69842;BME280;57138;51.326;-0.068;2024-03-08T05:41:46;99143.81;;;2.74;100.00
69842;BME280;57138;51.326;-0.068;2024-03-08T05:44:12;99139.38;;;2.75;100.00
69842;BME280;57138;51.326;-0.068;2024-03-08T05:46:38;99132.94;;;2.85;100.00
69842;BME280;57138;51.326;-0.068;2024-03-08T05:49:05;99136.91;;;2.81;100.00
69842;BME280;57138;51.326;-0.068;2024-03-08T05:51:35;99136.06;;;2.73;100.00
69842;BME280;57138;51.326;-0.068;2024-03-08T05:54:04;99131.94;;;2.86;100.00
69842;BME280;57138;51.326;-0.068;2024-03-08T05:56:35;99134.59;;;2.95;100.00
69842;BME280;57138;51.326;-0.068;2024-03-08T05:59:01;99126.84;;;2.93;100.00
69842;BME280;57138;51.326;-0.068;2024-03-08T06:01:30;99117.75;;;2.87;100.00
69842;BME280;57138;51.326;-0.068;2024-03-08T06:03:56;99125.66;;;2.96;100.00
69842;BME280;57138;51.326;-0.068;2024-03-08T06:06:23;99125.34;;;2.82;100.00
69842;BME280;57138;51.326;-0.068;2024-03-08T06:08:49;99127.16;;;2.82;100.00
69842;BME280;57138;51.326;-0.068;2024-03-08T06:11:15;99128.31;;;2.87;100.00
69842;BME280;57138;51.326;-0.068;2024-03-08T06:13:42;99122.03;;;2.80;100.00
69842;BME280;57138;51.326;-0.068;2024-03-08T06:16:08;99110.19;;;2.76;100.00
69842;BME280;57138;51.326;-0.068;2024-03-08T06:18:34;99110.16;;;2.84;100.00
69842;BME280;57138;51.326;-0.068;2024-03-08T06:21:02;99115.78;;;2.81;100.00
69842;BME280;57138;51.326;-0.068;2024-03-08T06:23:28;99106.84;;;2.74;100.00
69842;BME280;57138;51.326;-0.068;2024-03-08T06:25:53;99111.63;;;2.79;100.00
69842;BME280;57138;51.326;-0.068;2024-03-08T06:28:19;99110.50;;;2.73;100.00
69842;BME280;57138;51.326;-0.068;2024-03-08T06:30:45;99115.78;;;2.81;100.00
69842;BME280;57138;51.326;-0.068;2024-03-08T06:33:10;99107.03;;;2.81;100.00
69842;BME280;57138;51.326;-0.068;2024-03-08T06:35:36;99116.09;;;2.86;100.00
69842;BME280;57138;51.326;-0.068;2024-03-08T06:38:04;99119.75;;;2.85;100.00
69842;BME280;57138;51.326;-0.068;2024-03-08T06:40:29;99107.03;;;2.81;100.00
69842;BME280;57138;51.326;-0.068;2024-03-08T06:42:55;99107.53;;;2.84;100.00
69842;BME280;57138;51.326;-0.068;2024-03-08T06:45:20;99099.78;;;2.83;100.00
69842;BME280;57138;51.326;-0.068;2024-03-08T06:47:47;99104.56;;;2.87;100.00
69842;BME280;57138;51.326;-0.068;2024-03-08T06:50:13;99101.09;;;2.87;100.00
69842;BME280;57138;51.326;-0.068;2024-03-08T06:52:40;99106.38;;;2.87;100.00
69842;BME280;57138;51.326;-0.068;2024-03-08T06:55:08;99098.28;;;2.88;100.00
69842;BME280;57138;51.326;-0.068;2024-03-08T06:57:38;99101.44;;;2.84;100.00
69842;BME280;57138;51.326;-0.068;2024-03-08T07:00:09;99097.13;;;2.91;100.00
69842;BME280;57138;51.326;-0.068;2024-03-08T07:02:36;99096.31;;;2.91;100.00
69842;BME280;57138;51.326;-0.068;2024-03-08T07:05:02;99092.34;;;2.95;100.00
69842;BME280;57138;51.326;-0.068;2024-03-08T07:07:29;99095.31;;;2.92;100.00
69842;BME280;57138;51.326;-0.068;2024-03-08T07:09:55;99092.81;;;2.98;100.00
69842;BME280;57138;51.326;-0.068;2024-03-08T07:12:22;99087.03;;;3.03;100.00
69842;BME280;57138;51.326;-0.068;2024-03-08T07:14:48;99102.69;;;3.13;100.00
69842;BME280;57138;51.326;-0.068;2024-03-08T07:17:14;99097.25;;;3.14;100.00
69842;BME280;57138;51.326;-0.068;2024-03-08T07:19:39;99101.88;;;3.20;100.00
69842;BME280;57138;51.326;-0.068;2024-03-08T07:22:05;99099.56;;;3.17;100.00
69842;BME280;57138;51.326;-0.068;2024-03-08T07:24:34;99097.38;;;3.21;100.00
69842;BME280;57138;51.326;-0.068;2024-03-08T07:27:23;99099.19;;;3.29;100.00
69842;BME280;57138;51.326;-0.068;2024-03-08T07:29:48;99102.81;;;3.36;100.00
69842;BME280;57138;51.326;-0.068;2024-03-08T07:32:14;99096.88;;;3.34;100.00
69842;BME280;57138;51.326;-0.068;2024-03-08T07:34:50;99091.44;;;3.27;100.00
69842;BME280;57138;51.326;-0.068;2024-03-08T07:37:17;99094.88;;;3.36;100.00
69842;BME280;57138;51.326;-0.068;2024-03-08T07:39:42;99102.47;;;3.39;100.00
69842;BME280;57138;51.326;-0.068;2024-03-08T07:42:09;99104.44;;;3.45;100.00
69842;BME280;57138;51.326;-0.068;2024-03-08T07:44:36;99098.31;;;3.53;100.00
69842;BME280;57138;51.326;-0.068;2024-03-08T07:47:01;99097.97;;;3.56;100.00
69842;BME280;57138;51.326;-0.068;2024-03-08T07:49:27;99102.06;;;3.67;100.00
69842;BME280;57138;51.326;-0.068;2024-03-08T07:51:52;99089.47;;;3.69;100.00
69842;BME280;57138;51.326;-0.068;2024-03-08T07:54:18;99078.06;;;3.76;100.00
69842;BME280;57138;51.326;-0.068;2024-03-08T07:56:45;99083.44;;;3.91;100.00
69842;BME280;57138;51.326;-0.068;2024-03-08T07:59:17;99079.59;;;3.94;100.00
69842;BME280;57138;51.326;-0.068;2024-03-08T08:01:42;99067.97;;;4.11;100.00
69842;BME280;57138;51.326;-0.068;2024-03-08T08:04:10;99074.41;;;4.09;100.00
69842;BME280;57138;51.326;-0.068;2024-03-08T08:06:38;99080.72;;;4.31;100.00
69842;BME280;57138;51.326;-0.068;2024-03-08T08:09:07;99081.84;;;4.37;100.00
69842;BME280;57138;51.326;-0.068;2024-03-08T08:11:40;99061.94;;;4.41;100.00
69842;BME280;57138;51.326;-0.068;2024-03-08T08:14:06;99072.41;;;4.57;100.00
69842;BME280;57138;51.326;-0.068;2024-03-08T08:16:35;99064.41;;;4.65;100.00
69842;BME280;57138;51.326;-0.068;2024-03-08T08:19:02;99063.31;;;4.75;100.00
69842;BME280;57138;51.326;-0.068;2024-03-08T08:21:33;99069.94;;;4.79;100.00
69842;BME280;57138;51.326;-0.068;2024-03-08T08:23:59;99055.88;;;4.93;100.00
69842;BME280;57138;51.326;-0.068;2024-03-08T08:26:25;99058.34;;;4.95;100.00
69842;BME280;57138;51.326;-0.068;2024-03-08T08:28:51;99057.25;;;5.04;100.00
69842;BME280;57138;51.326;-0.068;2024-03-08T08:31:18;99055.44;;;5.19;100.00
69842;BME280;57138;51.326;-0.068;2024-03-08T08:33:44;99046.13;;;5.24;100.00
69842;BME280;57138;51.326;-0.068;2024-03-08T08:36:10;99047.47;;;5.34;100.00
69842;BME280;57138;51.326;-0.068;2024-03-08T08:38:35;99041.75;;;5.46;100.00
69842;BME280;57138;51.326;-0.068;2024-03-08T08:41:01;99033.50;;;5.55;100.00
69842;BME280;57138;51.326;-0.068;2024-03-08T08:43:28;99033.56;;;5.62;99.54
69842;BME280;57138;51.326;-0.068;2024-03-08T08:45:53;99033.91;;;5.74;99.74
69842;BME280;57138;51.326;-0.068;2024-03-08T08:48:20;99027.25;;;5.78;99.16
69842;BME280;57138;51.326;-0.068;2024-03-08T08:50:45;99028.94;;;5.86;97.79
69842;BME280;57138;51.326;-0.068;2024-03-08T08:53:12;99020.88;;;5.94;97.10
69842;BME280;57138;51.326;-0.068;2024-03-08T08:55:40;99009.09;;;5.97;95.25
69842;BME280;57138;51.326;-0.068;2024-03-08T08:58:05;99023.06;;;6.05;96.78
69842;BME280;57138;51.326;-0.068;2024-03-08T09:00:33;99017.63;;;6.14;96.46
69842;BME280;57138;51.326;-0.068;2024-03-08T09:02:59;99010.50;;;6.14;95.00
69842;BME280;57138;51.326;-0.068;2024-03-08T09:05:25;99012.59;;;6.19;92.06
69842;BME280;57138;51.326;-0.068;2024-03-08T09:07:51;99025.88;;;6.19;93.67
69842;BME280;57138;51.326;-0.068;2024-03-08T09:10:18;99020.78;;;6.24;90.61
69842;BME280;57138;51.326;-0.068;2024-03-08T09:12:44;99023.25;;;6.25;91.22
69842;BME280;57138;51.326;-0.068;2024-03-08T09:15:10;99012.69;;;6.32;91.96
69842;BME280;57138;51.326;-0.068;2024-03-08T09:17:37;99012.38;;;6.42;92.97
69842;BME280;57138;51.326;-0.068;2024-03-08T09:20:08;99009.22;;;6.53;93.29
69842;BME280;57138;51.326;-0.068;2024-03-08T09:22:46;99002.28;;;6.59;91.42
69842;BME280;57138;51.326;-0.068;2024-03-08T09:25:11;98993.31;;;6.60;90.07
69842;BME280;57138;51.326;-0.068;2024-03-08T09:27:37;98984.75;;;6.58;88.21
69842;BME280;57138;51.326;-0.068;2024-03-08T09:30:03;98978.78;;;6.56;89.75
69842;BME280;57138;51.326;-0.068;2024-03-08T09:32:32;98979.66;;;6.63;90.86
69842;BME280;57138;51.326;-0.068;2024-03-08T09:34:57;98976.84;;;6.71;88.76
69842;BME280;57138;51.326;-0.068;2024-03-08T09:37:22;98977.91;;;6.77;89.37
69842;BME280;57138;51.326;-0.068;2024-03-08T09:39:48;98969.31;;;6.75;87.47
69842;BME280;57138;51.326;-0.068;2024-03-08T09:42:15;98951.53;;;6.75;85.36
69842;BME280;57138;51.326;-0.068;2024-03-08T09:44:47;98953.00;;;6.78;87.14
69842;BME280;57138;51.326;-0.068;2024-03-08T09:47:14;98957.97;;;6.88;87.80
69842;BME280;57138;51.326;-0.068;2024-03-08T09:49:40;98944.28;;;6.91;86.96
69842;BME280;57138;51.326;-0.068;2024-03-08T09:52:07;98943.25;;;6.92;87.01
69842;BME280;57138;51.326;-0.068;2024-03-08T09:54:33;98938.38;;;6.95;87.76
69842;BME280;57138;51.326;-0.068;2024-03-08T09:56:59;98934.88;;;6.95;87.21
69842;BME280;57138;51.326;-0.068;2024-03-08T09:59:25;98942.03;;;6.94;86.63
69842;BME280;57138;51.326;-0.068;2024-03-08T10:01:51;98935.91;;;6.94;86.63
69842;BME280;57138;51.326;-0.068;2024-03-08T10:04:22;98915.84;;;6.84;86.35
69842;BME280;57138;51.326;-0.068;2024-03-08T10:06:48;98933.41;;;6.86;85.14
69842;BME280;57138;51.326;-0.068;2024-03-08T10:09:14;98925.28;;;6.94;84.57
69842;BME280;57138;51.326;-0.068;2024-03-08T10:11:41;98919.91;;;6.87;84.84
69842;BME280;57138;51.326;-0.068;2024-03-08T10:14:08;98924.41;;;6.87;86.19
69842;BME280;57138;51.326;-0.068;2024-03-08T10:16:34;98908.09;;;6.96;86.79
69842;BME280;57138;51.326;-0.068;2024-03-08T10:19:00;98896.69;;;7.02;86.05
69842;BME280;57138;51.326;-0.068;2024-03-08T10:21:26;98897.94;;;7.07;83.46
69842;BME280;57138;51.326;-0.068;2024-03-08T10:23:52;98900.00;;;7.11;81.16
69842;BME280;57138;51.326;-0.068;2024-03-08T10:26:18;98884.03;;;7.05;82.62
69842;BME280;57138;51.326;-0.068;2024-03-08T10:28:51;98896.34;;;7.12;81.57
69842;BME280;57138;51.326;-0.068;2024-03-08T10:31:20;98880.41;;;7.12;81.27
69842;BME280;57138;51.326;-0.068;2024-03-08T10:33:46;98878.75;;;7.11;83.07
69842;BME280;57138;51.326;-0.068;2024-03-08T10:36:13;98881.22;;;7.13;84.30
69842;BME280;57138;51.326;-0.068;2024-03-08T10:38:40;98876.16;;;7.31;83.52
69842;BME280;57138;51.326;-0.068;2024-03-08T10:41:07;98866.13;;;7.27;83.57
69842;BME280;57138;51.326;-0.068;2024-03-08T10:46:53;98857.56;;;7.38;81.55
69842;BME280;57138;51.326;-0.068;2024-03-08T10:49:13;98849.38;;;7.46;79.82
69842;BME280;57138;51.326;-0.068;2024-03-08T10:51:43;98849.41;;;7.60;80.86
69842;BME280;57138;51.326;-0.068;2024-03-08T10:54:10;98846.16;;;7.58;81.09
69842;BME280;57138;51.326;-0.068;2024-03-08T10:56:37;98840.63;;;7.59;77.33
69842;BME280;57138;51.326;-0.068;2024-03-08T10:59:03;98824.47;;;7.61;78.23
69842;BME280;57138;51.326;-0.068;2024-03-08T11:01:30;98837.94;;;7.52;75.00
69842;BME280;57138;51.326;-0.068;2024-03-08T11:03:55;98841.22;;;7.54;75.03
69842;BME280;57138;51.326;-0.068;2024-03-08T11:06:42;98828.13;;;7.60;76.18
69842;BME280;57138;51.326;-0.068;2024-03-08T11:09:35;98828.34;;;7.51;76.99
69842;BME280;57138;51.326;-0.068;2024-03-08T11:12:36;98825.88;;;7.63;78.67
69842;BME280;57138;51.326;-0.068;2024-03-08T11:15:10;98822.41;;;7.63;77.77
69842;BME280;57138;51.326;-0.068;2024-03-08T11:20:10;98816.28;;;7.62;77.10
69842;BME280;57138;51.326;-0.068;2024-03-08T11:22:41;98813.59;;;7.69;79.09
69842;BME280;57138;51.326;-0.068;2024-03-08T11:25:30;98807.47;;;7.75;76.25
69842;BME280;57138;51.326;-0.068;2024-03-08T11:28:17;98822.22;;;7.84;76.24
69842;BME280;57138;51.326;-0.068;2024-03-08T11:33:28;98799.91;;;7.92;74.71
69842;BME280;57138;51.326;-0.068;2024-03-08T11:36:07;98790.25;;;7.91;75.57
69842;BME280;57138;51.326;-0.068;2024-03-08T11:38:43;98789.84;;;7.94;76.58
69842;BME280;57138;51.326;-0.068;2024-03-08T11:41:18;98785.16;;;7.83;74.63
69842;BME280;57138;51.326;-0.068;2024-03-08T11:43:49;98793.34;;;7.88;73.03
69842;BME280;57138;51.326;-0.068;2024-03-08T11:46:16;98780.84;;;7.95;73.79
69842;BME280;57138;51.326;-0.068;2024-03-08T11:48:43;98765.47;;;7.97;72.84
69842;BME280;57138;51.326;-0.068;2024-03-08T11:51:11;98782.25;;;8.11;74.48
69842;BME280;57138;51.326;-0.068;2024-03-08T11:53:37;98756.03;;;8.15;70.94
69842;BME280;57138;51.326;-0.068;2024-03-08T11:58:32;98756.03;;;8.21;70.00
69842;BME280;57138;51.326;-0.068;2024-03-08T12:01:11;98780.59;;;8.23;69.28
69842;BME280;57138;51.326;-0.068;2024-03-08T12:03:42;98756.81;;;8.28;67.63
69842;BME280;57138;51.326;-0.068;2024-03-08T12:06:08;98755.59;;;8.24;69.24
69842;BME280;57138;51.326;-0.068;2024-03-08T12:08:37;98740.84;;;8.28;70.20
69842;BME280;57138;51.326;-0.068;2024-03-08T12:11:05;98758.22;;;8.38;69.96
69842;BME280;57138;51.326;-0.068;2024-03-08T12:13:32;98742.03;;;8.46;70.96
69842;BME280;57138;51.326;-0.068;2024-03-08T12:15:59;98740.16;;;8.53;68.47
69842;BME280;57138;51.326;-0.068;2024-03-08T12:18:26;98749.72;;;8.68;68.85
69842;BME280;57138;51.326;-0.068;2024-03-08T12:21:04;98730.03;;;8.69;67.76
69842;BME280;57138;51.326;-0.068;2024-03-08T12:23:33;98740.09;;;8.67;66.93
69842;BME280;57138;51.326;-0.068;2024-03-08T12:26:11;98736.16;;;8.76;67.99
69842;BME280;57138;51.326;-0.068;2024-03-08T12:28:41;98721.78;;;8.84;69.92
69842;BME280;57138;51.326;-0.068;2024-03-08T12:31:09;98731.97;;;8.93;69.52
69842;BME280;57138;51.326;-0.068;2024-03-08T12:33:57;98721.91;;;8.95;68.61
69842;BME280;57138;51.326;-0.068;2024-03-08T12:36:24;98718.22;;;8.96;68.92
69842;BME280;57138;51.326;-0.068;2024-03-08T12:38:50;98713.63;;;9.04;68.11
69842;BME280;57138;51.326;-0.068;2024-03-08T12:41:16;98711.59;;;9.06;68.45
69842;BME280;57138;51.326;-0.068;2024-03-08T12:43:43;98717.72;;;9.06;67.40
69842;BME280;57138;51.326;-0.068;2024-03-08T12:46:14;98702.75;;;9.05;66.29
69842;BME280;57138;51.326;-0.068;2024-03-08T12:48:40;98719.41;;;9.00;66.29
69842;BME280;57138;51.326;-0.068;2024-03-08T12:51:07;98716.19;;;8.92;66.83
69842;BME280;57138;51.326;-0.068;2024-03-08T12:53:33;98715.34;;;8.98;67.51
69842;BME280;57138;51.326;-0.068;2024-03-08T12:55:58;98703.63;;;8.99;68.17
69842;BME280;57138;51.326;-0.068;2024-03-08T12:58:24;98693.34;;;9.03;69.06
69842;BME280;57138;51.326;-0.068;2024-03-08T13:00:51;98698.63;;;9.09;69.24
69842;BME280;57138;51.326;-0.068;2024-03-08T13:03:17;98701.69;;;9.13;68.73